Terminal Aerodrome Forecast
Issued by NWS

Current Version | Previous Version | Graphics & Text | Print | Product List | Glossary On
Versions: 1 2 3 4 5 6 7 8 9 10 11 12 13 14 15 16 17 18 19 20 21 22 23 24 25 26 27 28 29 30 31 32 33 34 35 36 37 38 39 40 41 42 43 44 45 46
000
FTUS41 KRNK 161746
TAFLWB
TAF
KLWB 161746Z 1618/1718 27003KT P6SM SCT020 BKN030 OVC050
     FM162100 31006KT P6SM SCT028 BKN035
     FM170000 00000KT P6SM SCT035 SCT100
     FM170500 00000KT 4SM BR SCT001 BKN015
     FM171000 00000KT 3SM -DZ BR OVC005
     FM171700 07001KT 5SM -DZ BR SCT005 BKN008=

USA.gov is the U.S. government's official web portal to all federal, state and local government web resources and services.